Time;durP1;ratioP1;P1;durP2;ratioP2;P2;SDS_P1;SDS_P2;PMS_P1;PMS_P2;Temp;Humidity;BMP_temperature;BMP_pressure;BME280_temperature;BME280_humidity;BME280_pressure;Samples;Min_cycle;Max_cycle;Signal;HPM_P1;HPM_P2
2023/07/03 00:00:00;;;;;;;;;9.67;7.33;;;;;;;;4979095;28;28452;-91
2023/07/03 00:02:27;;;;;;;;;2.67;2.67;;;;;;;;4961792;28;29609;-91
2023/07/03 00:04:55;;;;;;;;;8.00;7.00;;;;;;;;4979332;28;28682;-91
2023/07/03 00:07:20;;;;;;;;;5.67;5.67;;;;;;;;4963923;28;28578;-91
2023/07/03 00:09:46;;;;;;;;;3.67;3.67;;;;;;;;4978296;28;28387;-92
2023/07/03 00:12:11;;;;;;;;;8.00;6.67;;;;;;;;4978658;28;28430;-92
2023/07/03 00:14:39;;;;;;;;;8.00;7.00;;;;;;;;4961883;28;28510;-91
2023/07/03 00:17:07;;;;;;;;;9.00;6.00;;;;;;;;4961059;28;28372;-92
2023/07/03 00:19:32;;;;;;;;;6.67;6.67;;;;;;;;4986991;28;28309;-91
2023/07/03 00:22:00;;;;;;;;;10.00;7.67;;;;;;;;4983215;28;28394;-91
2023/07/03 00:24:29;;;;;;;;;10.67;7.67;;;;;;;;4960088;28;28619;-92
2023/07/03 00:26:59;;;;;;;;;8.00;8.00;;;;;;;;4976256;28;28407;-92
2023/07/03 00:29:28;;;;;;;;;8.67;8.67;;;;;;;;4977438;28;28557;-92
2023/07/03 00:31:54;;;;;;;;;9.33;9.00;;;;;;;;4977517;28;31024;-92
2023/07/03 00:34:36;;;;;;;;;12.00;8.33;;;;;;;;4961069;28;28970;-92
2023/07/03 00:37:02;;;;;;;;;6.67;6.67;;;;;;;;4979115;28;28454;-91
2023/07/03 00:39:27;;;;;;;;;8.00;8.00;;;;;;;;4982929;28;28313;-91
2023/07/03 00:41:57;;;;;;;;;9.00;8.00;;;;;;;;4981609;28;29470;-90
2023/07/03 00:44:23;;;;;;;;;8.67;8.33;;;;;;;;4979019;28;28385;-91
2023/07/03 00:46:49;;;;;;;;;8.00;6.33;;;;;;;;4978928;28;28671;-91
2023/07/03 00:49:15;;;;;;;;;6.33;5.33;;;;;;;;4960168;28;28527;-91
2023/07/03 00:51:42;;;;;;;;;11.67;9.00;;;;;;;;4977296;28;28678;-91
2023/07/03 00:54:08;;;;;;;;;8.67;8.33;;;;;;;;4977689;28;28430;-91
2023/07/03 00:56:34;;;;;;;;;7.67;5.67;;;;;;;;4978647;28;28483;-91
2023/07/03 00:58:59;;;;;;;;;8.33;7.00;;;;;;;;4961893;28;28471;-91
2023/07/03 01:01:36;;;;;;;;;8.00;7.67;;;;;;;;4959611;28;29720;-91
2023/07/03 01:04:06;;;;;;;;;10.33;9.67;;;;;;;;4981774;28;28547;-91
2023/07/03 01:06:35;;;;;;;;;6.00;5.67;;;;;;;;4960959;28;28471;-91
2023/07/03 01:09:01;;;;;;;;;11.00;9.00;;;;;;;;4979150;28;28385;-91
2023/07/03 01:11:27;;;;;;;;;5.33;5.33;;;;;;;;4966332;28;29974;-91
2023/07/03 01:13:55;;;;;;;;;8.00;8.00;;;;;;;;4973729;28;29961;-91
2023/07/03 01:16:20;;;;;;;;;11.67;10.33;;;;;;;;4976023;28;28696;-91
2023/07/03 01:18:47;;;;;;;;;7.00;7.00;;;;;;;;4958732;28;28600;-91
2023/07/03 01:21:16;;;;;;;;;7.33;7.33;;;;;;;;4959266;28;29960;-91
2023/07/03 01:23:43;;;;;;;;;12.33;11.33;;;;;;;;4958147;28;29629;-91
2023/07/03 01:26:11;;;;;;;;;6.00;6.00;;;;;;;;4959082;28;28535;-91
2023/07/03 01:28:37;;;;;;;;;7.33;7.33;;;;;;;;4958902;28;28435;-92
2023/07/03 01:31:07;;;;;;;;;7.67;7.67;;;;;;;;4958364;28;29763;-91
2023/07/03 01:33:40;;;;;;;;;7.33;5.33;;;;;;;;4975149;28;28524;-91
2023/07/03 01:36:06;;;;;;;;;15.67;12.00;;;;;;;;4958441;28;28492;-91
2023/07/03 01:38:31;;;;;;;;;7.67;7.67;;;;;;;;4959484;28;28675;-91
2023/07/03 01:40:58;;;;;;;;;7.00;7.00;;;;;;;;4958808;28;29819;-91
2023/07/03 01:43:23;;;;;;;;;9.00;7.00;;;;;;;;4958959;28;28771;-90
2023/07/03 01:45:49;;;;;;;;;7.00;7.00;;;;;;;;4974114;28;28399;-91
2023/07/03 01:48:15;;;;;;;;;8.67;6.00;;;;;;;;4955258;28;28708;-91
2023/07/03 01:50:41;;;;;;;;;8.00;8.00;;;;;;;;4956206;28;31939;-91
2023/07/03 01:53:14;;;;;;;;;11.00;9.00;;;;;;;;4957265;28;28491;-91
2023/07/03 01:55:50;;;;;;;;;12.33;8.67;;;;;;;;4985849;28;28541;-91
2023/07/03 01:58:34;;;;;;;;;5.67;5.67;;;;;;;;4994044;28;28594;-90
2023/07/03 02:01:02;;;;;;;;;11.67;9.00;;;;;;;;4994256;28;29671;-91
2023/07/03 02:03:35;;;;;;;;;10.33;10.00;;;;;;;;4993191;28;28657;-91
2023/07/03 02:06:02;;;;;;;;;8.00;8.00;;;;;;;;4977385;28;28561;-91
2023/07/03 02:08:28;;;;;;;;;10.67;8.33;;;;;;;;4977921;28;28359;-90
2023/07/03 02:10:54;;;;;;;;;13.33;9.33;;;;;;;;4994103;28;28469;-91
2023/07/03 02:13:19;;;;;;;;;8.00;8.00;;;;;;;;4978529;28;28346;-91
2023/07/03 02:15:52;;;;;;;;;7.33;7.33;;;;;;;;4996116;28;28229;-91
2023/07/03 02:18:17;;;;;;;;;7.67;7.67;;;;;;;;4995048;28;28538;-91
2023/07/03 02:20:44;;;;;;;;;9.33;7.67;;;;;;;;4979099;28;29811;-91
2023/07/03 02:23:12;;;;;;;;;9.00;8.00;;;;;;;;4978699;28;28626;-91
2023/07/03 02:25:37;;;;;;;;;8.00;7.00;;;;;;;;4986901;28;28473;-91
2023/07/03 02:28:03;;;;;;;;;9.33;9.33;;;;;;;;4978682;28;28355;-90
2023/07/03 02:30:32;;;;;;;;;13.00;10.00;;;;;;;;4979167;28;30860;-90
2023/07/03 02:32:57;;;;;;;;;9.00;8.00;;;;;;;;4987458;28;28799;-91
2023/07/03 02:35:24;;;;;;;;;10.33;8.67;;;;;;;;4997293;28;28677;-91
2023/07/03 02:37:51;;;;;;;;;8.33;8.33;;;;;;;;4996417;28;28456;-91
2023/07/03 02:40:16;;;;;;;;;6.33;6.33;;;;;;;;4979131;28;30730;-91
2023/07/03 02:42:42;;;;;;;;;7.67;7.67;;;;;;;;4995778;28;28409;-91
2023/07/03 02:45:07;;;;;;;;;8.33;8.33;;;;;;;;4995828;28;28240;-91
2023/07/03 02:47:39;;;;;;;;;9.33;9.33;;;;;;;;4979311;28;28531;-91
2023/07/03 02:50:06;;;;;;;;;10.00;9.67;;;;;;;;5000836;28;28395;-91
2023/07/03 02:52:31;;;;;;;;;10.00;10.00;;;;;;;;4996643;28;29906;-91
2023/07/03 02:54:57;;;;;;;;;9.00;9.00;;;;;;;;4989321;28;28292;-91
2023/07/03 02:57:22;;;;;;;;;8.67;7.33;;;;;;;;4976425;28;28388;-91
2023/07/03 02:59:47;;;;;;;;;11.00;8.67;;;;;;;;4978170;28;28527;-91
2023/07/03 03:02:13;;;;;;;;;9.00;8.33;;;;;;;;4976357;28;28416;-91
2023/07/03 03:04:38;;;;;;;;;9.67;8.00;;;;;;;;4979002;28;28483;-91
2023/07/03 03:07:03;;;;;;;;;6.67;6.67;;;;;;;;4963155;28;28543;-91
2023/07/03 03:09:32;;;;;;;;;7.67;7.67;;;;;;;;4979705;28;29262;-91
2023/07/03 03:11:57;;;;;;;;;6.00;5.33;;;;;;;;4983278;28;28499;-91
2023/07/03 03:14:22;;;;;;;;;9.00;9.00;;;;;;;;4962560;28;28480;-91
2023/07/03 03:16:47;;;;;;;;;10.00;10.00;;;;;;;;4978638;28;28663;-91
2023/07/03 03:19:13;;;;;;;;;9.00;6.67;;;;;;;;4983705;28;28983;-92
2023/07/03 03:21:38;;;;;;;;;6.33;5.33;;;;;;;;4969079;28;29127;-92
2023/07/03 03:24:06;;;;;;;;;7.00;7.00;;;;;;;;4961748;28;28478;-92
2023/07/03 03:26:33;;;;;;;;;9.33;7.00;;;;;;;;4980032;28;28246;-92
2023/07/03 03:28:59;;;;;;;;;7.33;6.00;;;;;;;;4961403;28;29953;-91
2023/07/03 03:31:24;;;;;;;;;9.00;9.00;;;;;;;;4985115;28;28320;-91
2023/07/03 03:33:49;;;;;;;;;9.67;7.67;;;;;;;;4978717;28;28365;-91
2023/07/03 03:36:20;;;;;;;;;6.33;6.33;;;;;;;;4980181;28;28278;-92
2023/07/03 03:38:45;;;;;;;;;11.67;9.67;;;;;;;;4979224;28;28555;-91
2023/07/03 03:41:10;;;;;;;;;5.67;5.67;;;;;;;;4968047;28;28427;-91
2023/07/03 03:43:36;;;;;;;;;7.67;7.00;;;;;;;;4978844;28;28293;-91
2023/07/03 03:46:01;;;;;;;;;12.33;10.67;;;;;;;;4979943;28;28333;-91
2023/07/03 03:48:36;;;;;;;;;8.33;7.33;;;;;;;;4961848;28;29720;-90
2023/07/03 03:51:01;;;;;;;;;7.33;7.33;;;;;;;;4978764;28;28492;-91
2023/07/03 03:53:29;;;;;;;;;11.00;10.33;;;;;;;;4978442;28;28278;-91
2023/07/03 03:55:54;;;;;;;;;7.00;7.00;;;;;;;;4979020;28;28296;-90
2023/07/03 03:58:22;;;;;;;;;11.67;9.67;;;;;;;;4977484;28;28337;-91
2023/07/03 04:00:50;;;;;;;;;9.00;8.00;;;;;;;;4979398;28;28466;-92
2023/07/03 04:03:18;;;;;;;;;9.33;8.00;;;;;;;;4978442;28;28468;-91
2023/07/03 04:05:44;;;;;;;;;10.00;9.67;;;;;;;;4979642;28;28306;-91
2023/07/03 04:08:09;;;;;;;;;11.00;11.00;;;;;;;;4979343;28;28345;-92
2023/07/03 04:10:35;;;;;;;;;12.67;11.67;;;;;;;;4961195;28;28532;-92
2023/07/03 04:13:00;;;;;;;;;14.00;12.00;;;;;;;;4961841;28;28552;-91
2023/07/03 04:15:25;;;;;;;;;11.00;10.00;;;;;;;;4977773;28;28396;-92
2023/07/03 04:17:50;;;;;;;;;16.00;12.33;;;;;;;;4978959;28;28526;-91
2023/07/03 04:20:17;;;;;;;;;10.33;10.33;;;;;;;;4971542;28;29846;-91
2023/07/03 04:22:43;;;;;;;;;11.67;10.67;;;;;;;;4986358;28;28414;-91
2023/07/03 04:25:08;;;;;;;;;9.67;9.67;;;;;;;;4960841;28;28396;-91
2023/07/03 04:27:34;;;;;;;;;9.33;9.33;;;;;;;;4979313;28;28465;-91
2023/07/03 04:30:00;;;;;;;;;11.00;11.00;;;;;;;;4977892;28;28405;-91
2023/07/03 04:32:25;;;;;;;;;10.00;9.67;;;;;;;;4982719;28;28364;-91
2023/07/03 04:34:50;;;;;;;;;12.00;11.33;;;;;;;;4978646;28;28400;-91
2023/07/03 04:37:17;;;;;;;;;16.67;15.00;;;;;;;;4979086;28;28308;-91
2023/07/03 04:39:42;;;;;;;;;14.00;12.67;;;;;;;;4978835;28;28289;-91
2023/07/03 04:42:13;;;;;;;;;10.33;8.33;;;;;;;;4961687;28;28576;-91
2023/07/03 04:44:38;;;;;;;;;16.00;13.67;;;;;;;;4976404;28;28749;-91
2023/07/03 04:47:06;;;;;;;;;13.00;13.00;;;;;;;;4977988;28;28680;-91
2023/07/03 04:49:32;;;;;;;;;12.00;11.33;;;;;;;;4978441;28;28894;-91
2023/07/03 04:51:58;;;;;;;;;13.00;11.67;;;;;;;;4978894;28;28332;-91
2023/07/03 04:54:24;;;;;;;;;15.67;13.67;;;;;;;;4978300;28;28907;-92
2023/07/03 04:56:49;;;;;;;;;15.00;15.00;;;;;;;;4978398;28;28302;-91
2023/07/03 04:59:15;;;;;;;;;12.33;11.67;;;;;;;;4975498;28;28329;-91
2023/07/03 05:01:43;;;;;;;;;9.00;9.00;;;;;;;;4961160;28;28375;-91
2023/07/03 05:04:09;;;;;;;;;12.00;11.33;;;;;;;;4977601;28;28674;-91
2023/07/03 05:06:34;;;;;;;;;10.67;10.00;;;;;;;;4990169;28;29453;-91
2023/07/03 05:08:59;;;;;;;;;19.67;16.00;;;;;;;;4979646;28;28400;-91
2023/07/03 05:11:25;;;;;;;;;12.00;8.67;;;;;;;;4960937;28;28548;-91
2023/07/03 05:13:50;;;;;;;;;14.67;14.67;;;;;;;;4977618;28;28314;-91
2023/07/03 05:16:15;;;;;;;;;12.33;11.67;;;;;;;;4961032;28;29716;-91
2023/07/03 05:18:41;;;;;;;;;14.67;11.33;;;;;;;;4959688;28;29457;-91
2023/07/03 05:21:06;;;;;;;;;12.33;10.33;;;;;;;;4969174;28;28479;-90
2023/07/03 05:23:32;;;;;;;;;13.33;11.67;;;;;;;;4958554;28;29774;-91
2023/07/03 05:25:57;;;;;;;;;14.00;11.67;;;;;;;;4977335;28;29140;-91
2023/07/03 05:28:24;;;;;;;;;9.67;9.00;;;;;;;;4959096;28;29705;-91
2023/07/03 05:30:53;;;;;;;;;11.33;11.33;;;;;;;;4976088;28;28288;-91
2023/07/03 05:33:18;;;;;;;;;9.00;8.00;;;;;;;;4958041;28;28550;-92
2023/07/03 05:35:43;;;;;;;;;10.67;9.00;;;;;;;;4959340;28;28749;-91
2023/07/03 05:38:08;;;;;;;;;6.33;6.33;;;;;;;;4975858;28;28345;-91
2023/07/03 05:40:41;;;;;;;;;11.00;9.67;;;;;;;;4975757;28;28513;-90
2023/07/03 05:43:06;;;;;;;;;6.67;6.00;;;;;;;;4975142;28;28520;-91
2023/07/03 05:45:32;;;;;;;;;11.00;10.00;;;;;;;;4957735;28;30203;-91
2023/07/03 05:47:57;;;;;;;;;7.33;7.33;;;;;;;;4975347;28;28419;-91
2023/07/03 05:50:22;;;;;;;;;8.67;7.67;;;;;;;;4975791;28;28413;-91
2023/07/03 05:52:48;;;;;;;;;3.33;3.33;;;;;;;;4958740;28;28570;-91
2023/07/03 05:55:13;;;;;;;;;9.00;7.00;;;;;;;;4980253;28;28630;-90
2023/07/03 05:57:39;;;;;;;;;12.67;11.33;;;;;;;;4988327;28;28417;-91
2023/07/03 06:00:12;;;;;;;;;7.00;7.00;;;;;;;;4965767;28;28579;-91
2023/07/03 06:02:38;;;;;;;;;7.33;7.00;;;;;;;;4963036;28;28743;-91
2023/07/03 06:05:03;;;;;;;;;8.00;8.00;;;;;;;;4985446;28;28471;-92
2023/07/03 06:07:28;;;;;;;;;11.67;8.33;;;;;;;;4964709;28;28952;-92
2023/07/03 06:09:54;;;;;;;;;2.33;1.67;;;;;;;;4969834;28;28477;-91
2023/07/03 06:12:19;;;;;;;;;6.67;5.67;;;;;;;;4966667;28;28548;-91
2023/07/03 06:14:44;;;;;;;;;7.33;7.33;;;;;;;;4983587;28;28571;-91
2023/07/03 06:17:10;;;;;;;;;8.33;8.33;;;;;;;;4984118;28;28542;-90
2023/07/03 06:19:35;;;;;;;;;8.33;5.33;;;;;;;;4965057;28;28548;-91
2023/07/03 06:22:00;;;;;;;;;8.67;8.67;;;;;;;;4964578;28;28492;-91
2023/07/03 06:24:26;;;;;;;;;11.67;6.33;;;;;;;;4984000;28;28483;-92
2023/07/03 06:26:52;;;;;;;;;5.00;5.00;;;;;;;;4983018;28;29097;-92
2023/07/03 06:29:17;;;;;;;;;7.00;6.00;;;;;;;;4963912;28;28454;-92
2023/07/03 06:31:42;;;;;;;;;6.33;4.33;;;;;;;;4988534;28;28549;-91
2023/07/03 06:34:08;;;;;;;;;5.67;5.67;;;;;;;;4985351;28;28550;-92
2023/07/03 06:36:34;;;;;;;;;7.33;5.33;;;;;;;;4981550;28;28242;-92
2023/07/03 06:39:00;;;;;;;;;5.33;3.33;;;;;;;;4969783;28;28527;-92
2023/07/03 06:41:26;;;;;;;;;7.33;6.33;;;;;;;;4970089;28;28705;-90
2023/07/03 06:43:52;;;;;;;;;4.00;4.00;;;;;;;;4985660;28;29494;-91
2023/07/03 06:46:17;;;;;;;;;1.67;1.67;;;;;;;;4989739;28;28582;-91
2023/07/03 06:48:47;;;;;;;;;7.00;6.00;;;;;;;;4979488;28;28538;-91
2023/07/03 06:51:13;;;;;;;;;6.67;6.33;;;;;;;;4960581;28;28579;-92
2023/07/03 06:53:38;;;;;;;;;6.00;5.00;;;;;;;;4979546;28;29222;-91
2023/07/03 06:56:04;;;;;;;;;3.67;3.67;;;;;;;;4977548;28;28629;-92
2023/07/03 06:58:31;;;;;;;;;8.33;6.00;;;;;;;;4989132;28;28546;-91
2023/07/03 07:22:58;;;;;;;;;4.67;3.00;;;;;;;;5483255;23;28393;-90
2023/07/03 07:25:26;;;;;;;;;2.67;2.67;;;;;;;;4996937;28;29211;-93
2023/07/03 07:27:51;;;;;;;;;2.00;2.00;;;;;;;;4999116;28;28376;-93
2023/07/03 07:30:16;;;;;;;;;2.00;2.00;;;;;;;;4970480;28;28427;-95
2023/07/03 07:32:42;;;;;;;;;3.00;3.00;;;;;;;;4986187;28;28338;-95
2023/07/03 07:35:07;;;;;;;;;4.00;2.00;;;;;;;;4987949;28;28455;-94
2023/07/03 07:37:32;;;;;;;;;1.00;1.00;;;;;;;;4980071;28;28377;-95
2023/07/03 07:39:58;;;;;;;;;2.00;2.00;;;;;;;;4979159;28;28610;-94
2023/07/03 07:42:29;;;;;;;;;3.33;3.33;;;;;;;;4962694;28;28587;-94
2023/07/03 07:44:54;;;;;;;;;1.33;1.33;;;;;;;;4976993;28;29456;-95
2023/07/03 07:47:20;;;;;;;;;2.00;2.00;;;;;;;;4974997;28;28659;-94
2023/07/03 07:49:45;;;;;;;;;3.67;3.67;;;;;;;;4968215;28;28578;-93
2023/07/03 07:52:15;;;;;;;;;1.67;1.67;;;;;;;;4979494;28;28317;-94
2023/07/03 07:54:40;;;;;;;;;4.67;3.00;;;;;;;;4959557;28;29886;-93
2023/07/03 07:57:08;;;;;;;;;1.00;1.00;;;;;;;;4979857;28;28368;-95
2023/07/03 07:59:34;;;;;;;;;3.67;3.00;;;;;;;;4982646;28;28542;-92
2023/07/03 08:01:59;;;;;;;;;4.00;3.67;;;;;;;;4978081;28;28482;-93
2023/07/03 08:04:25;;;;;;;;;2.00;2.00;;;;;;;;4979921;28;29542;-93
2023/07/03 08:06:50;;;;;;;;;3.00;1.33;;;;;;;;4958736;28;28577;-94
2023/07/03 08:09:24;;;;;;;;;2.00;1.00;;;;;;;;4972849;28;28571;-95
2023/07/03 08:11:49;;;;;;;;;2.00;2.00;;;;;;;;4978088;28;28450;-95
2023/07/03 08:14:14;;;;;;;;;3.67;2.33;;;;;;;;4960137;28;29276;-93
2023/07/03 08:16:40;;;;;;;;;2.00;2.00;;;;;;;;4977598;28;28345;-91
2023/07/03 08:19:05;;;;;;;;;1.00;1.00;;;;;;;;4959593;28;28320;-92
2023/07/03 08:21:30;;;;;;;;;2.00;2.00;;;;;;;;4973417;28;28412;-94
2023/07/03 08:23:56;;;;;;;;;1.67;1.67;;;;;;;;4976322;28;29289;-93
2023/07/03 08:26:22;;;;;;;;;3.00;3.00;;;;;;;;4951525;28;30450;-92
2023/07/03 08:28:47;;;;;;;;;1.67;1.67;;;;;;;;4951845;28;28486;-92
2023/07/03 08:31:13;;;;;;;;;1.00;1.00;;;;;;;;4964875;28;28574;-95
2023/07/03 08:33:38;;;;;;;;;1.00;1.00;;;;;;;;4979110;28;28405;-95
2023/07/03 08:36:05;;;;;;;;;1.33;1.33;;;;;;;;4958344;28;28588;-93
2023/07/03 08:38:30;;;;;;;;;1.00;1.00;;;;;;;;4965663;28;28647;-95
2023/07/03 08:40:57;;;;;;;;;2.33;2.33;;;;;;;;4977629;28;28703;-94
2023/07/03 08:43:22;;;;;;;;;2.00;2.00;;;;;;;;4977628;28;28529;-94
2023/07/03 08:45:49;;;;;;;;;0.00;0.00;;;;;;;;4972904;28;29289;-92
2023/07/03 08:48:19;;;;;;;;;1.00;0.33;;;;;;;;4973514;28;28585;-92
2023/07/03 08:50:46;;;;;;;;;0.00;0.00;;;;;;;;4982639;28;28546;-92
2023/07/03 08:53:15;;;;;;;;;2.33;2.33;;;;;;;;4973419;28;28448;-92
2023/07/03 08:55:42;;;;;;;;;1.00;1.00;;;;;;;;4956728;28;28348;-93
2023/07/03 08:58:08;;;;;;;;;0.00;0.00;;;;;;;;4960412;28;28467;-93
2023/07/03 09:00:38;;;;;;;;;1.67;0.67;;;;;;;;4965986;28;28465;-92
2023/07/03 09:03:23;;;;;;;;;1.33;0.67;;;;;;;;4981024;28;28450;-92
2023/07/03 09:05:58;;;;;;;;;0.00;0.00;;;;;;;;4977709;28;28773;-91
2023/07/03 09:11:41;;;;;;;;;;;;;;;;;;;;;
2023/07/03 09:14:37;;;;;;;;;;;;;;;;;;;;;
2023/07/03 09:17:31;;;;;;;;;1.00;1.00;;;;;;;;4966262;28;56852;-95
2023/07/03 09:23:23;;;;;;;;;3.00;1.67;;;;;;;;4944429;28;28381;-96
2023/07/03 09:25:54;;;;;;;;;1.67;1.67;;;;;;;;4960034;28;30117;-94
2023/07/03 09:41:09;;;;;;;;;1.00;1.00;;;;;;;;5029693;23;28260;-93
2023/07/03 09:43:42;;;;;;;;;1.00;1.00;;;;;;;;5032171;28;28271;-92
2023/07/03 09:46:12;;;;;;;;;1.00;1.00;;;;;;;;5022424;28;30586;-93
2023/07/03 09:48:38;;;;;;;;;1.00;1.00;;;;;;;;5011944;28;28914;-90
2023/07/03 09:51:06;;;;;;;;;1.00;1.00;;;;;;;;5016274;28;28528;-93
2023/07/03 09:53:39;;;;;;;;;0.00;0.00;;;;;;;;5023186;28;28221;-94
2023/07/03 09:56:16;;;;;;;;;0.67;0.00;;;;;;;;5016305;28;29668;-93
2023/07/03 09:58:47;;;;;;;;;1.00;1.00;;;;;;;;5015565;28;28236;-93
2023/07/03 10:01:16;;;;;;;;;2.33;1.67;;;;;;;;4998140;28;28509;-94
2023/07/03 10:03:41;;;;;;;;;0.00;0.00;;;;;;;;5016022;28;28470;-92
2023/07/03 10:06:17;;;;;;;;;2.00;2.00;;;;;;;;5015970;28;29538;-93
2023/07/03 10:08:51;;;;;;;;;1.67;1.67;;;;;;;;4996471;28;28700;-94
2023/07/03 10:11:31;;;;;;;;;0.00;0.00;;;;;;;;4993774;28;28472;-93
2023/07/03 10:13:58;;;;;;;;;2.00;2.00;;;;;;;;5016032;28;28628;-95
2023/07/03 10:16:42;;;;;;;;;1.00;1.00;;;;;;;;4997053;28;28616;-96
2023/07/03 10:19:34;;;;;;;;;1.67;1.00;;;;;;;;5010167;28;28548;-96
2023/07/03 10:22:20;;;;;;;;;1.00;1.00;;;;;;;;4987354;28;28281;-96
2023/07/03 10:24:49;;;;;;;;;2.00;1.00;;;;;;;;4984823;28;28615;-96
2023/07/03 10:27:45;;;;;;;;;2.00;2.00;;;;;;;;5014546;28;28508;-96
2023/07/03 10:30:15;;;;;;;;;0.00;0.00;;;;;;;;5016446;28;28592;-94
2023/07/03 10:32:51;;;;;;;;;2.67;2.00;;;;;;;;4997593;28;28395;-96
2023/07/03 10:38:39;;;;;;;;;2.00;2.00;;;;;;;;4999964;28;28840;-96
2023/07/03 10:41:07;;;;;;;;;1.67;1.67;;;;;;;;5004954;28;28750;-95
2023/07/03 10:44:12;;;;;;;;;;;;;;;;;;;;;
2023/07/03 10:50:47;;;;;;;;;0.67;0.67;;;;;;;;4903494;28;28631;-96
2023/07/03 10:53:45;;;;;;;;;1.00;1.00;;;;;;;;4996658;28;28599;-94
2023/07/03 10:56:34;;;;;;;;;3.33;2.67;;;;;;;;4967552;28;28774;-96
2023/07/03 11:17:27;;;;;;;;;1.00;1.00;;;;;;;;4974840;28;28623;-95
2023/07/03 11:26:27;;;;;;;;;1.00;1.00;;;;;;;;5034804;28;28866;-91
2023/07/03 11:29:22;;;;;;;;;2.00;1.00;;;;;;;;5024730;28;29310;-94
2023/07/03 11:31:49;;;;;;;;;1.00;1.00;;;;;;;;5012445;28;28751;-95
2023/07/03 11:34:15;;;;;;;;;1.00;1.00;;;;;;;;5017149;28;28717;-92
2023/07/03 11:36:49;;;;;;;;;1.00;1.00;;;;;;;;5018436;28;28337;-92
2023/07/03 11:39:22;;;;;;;;;0.33;0.33;;;;;;;;5002669;28;28477;-91
2023/07/03 11:41:54;;;;;;;;;2.00;1.00;;;;;;;;4998972;28;28450;-95
2023/07/03 11:52:55;;;;;;;;;1.00;1.00;;;;;;;;5458447;23;28843;-91
2023/07/03 11:55:32;;;;;;;;;1.00;1.00;;;;;;;;4998580;28;28571;-89
2023/07/03 11:57:59;;;;;;;;;1.00;1.00;;;;;;;;5016482;28;28467;-80
2023/07/03 12:00:42;;;;;;;;;1.33;1.33;;;;;;;;4996335;28;28560;-86
2023/07/03 12:03:08;;;;;;;;;2.00;0.33;;;;;;;;4970075;28;28396;-86
2023/07/03 12:05:42;;;;;;;;;2.67;2.00;;;;;;;;4981268;28;28422;-85
2023/07/03 12:08:34;;;;;;;;;0.00;0.00;;;;;;;;4997621;28;28507;-79
2023/07/03 12:11:00;;;;;;;;;1.00;1.00;;;;;;;;4946145;28;28548;-91
2023/07/03 12:13:27;;;;;;;;;0.67;0.67;;;;;;;;4980443;28;28670;-93
2023/07/03 12:15:56;;;;;;;;;0.00;0.00;;;;;;;;4997500;28;28330;-92
2023/07/03 12:18:35;;;;;;;;;0.00;0.00;;;;;;;;4979555;28;29696;-91
2023/07/03 12:21:33;;;;;;;;;1.00;1.00;;;;;;;;4997079;28;28873;-94
2023/07/03 12:24:01;;;;;;;;;1.00;1.00;;;;;;;;4969888;28;28365;-91
2023/07/03 12:26:26;;;;;;;;;0.67;0.67;;;;;;;;4980864;28;28574;-91
2023/07/03 12:29:07;;;;;;;;;0.33;0.33;;;;;;;;4980424;28;30066;-91
2023/07/03 12:31:39;;;;;;;;;0.00;0.00;;;;;;;;4979235;28;28341;-93
2023/07/03 12:34:06;;;;;;;;;0.67;0.67;;;;;;;;4978673;28;28281;-91
2023/07/03 12:36:52;;;;;;;;;;;;;;;;;;;;;
2023/07/03 12:39:17;;;;;;;;;1.00;1.00;;;;;;;;4994324;28;58110;-93
2023/07/03 12:41:58;;;;;;;;;;;;;;;;;;;;;
2023/07/03 12:44:24;;;;;;;;;0.00;0.00;;;;;;;;4996824;28;54705;-91
2023/07/03 12:46:49;;;;;;;;;0.33;0.33;;;;;;;;4979010;28;28451;-91
2023/07/03 12:49:17;;;;;;;;;0.00;0.00;;;;;;;;4969446;28;31571;-92
2023/07/03 12:51:53;;;;;;;;;0.33;0.33;;;;;;;;4976678;28;29383;-93
2023/07/03 12:54:20;;;;;;;;;0.33;0.33;;;;;;;;4961928;28;28551;-93
2023/07/03 12:56:46;;;;;;;;;0.33;0.33;;;;;;;;4987212;28;28490;-95
2023/07/03 12:59:51;;;;;;;;;1.00;1.00;;;;;;;;4978380;28;28469;-96
2023/07/03 13:02:19;;;;;;;;;1.00;1.00;;;;;;;;4962382;28;28678;-93
2023/07/03 13:05:12;;;;;;;;;0.00;0.00;;;;;;;;4980372;28;28515;-96
2023/07/03 13:08:03;;;;;;;;;0.00;0.00;;;;;;;;4958388;28;27909;-96
2023/07/03 13:10:28;;;;;;;;;0.00;0.00;;;;;;;;4975809;28;28653;-95
2023/07/03 13:13:17;;;;;;;;;0.67;0.67;;;;;;;;4972987;28;28543;-95
2023/07/03 13:15:43;;;;;;;;;1.00;1.00;;;;;;;;4986967;28;28517;-95
2023/07/03 13:18:22;;;;;;;;;1.00;1.00;;;;;;;;4952321;28;28334;-95
2023/07/03 13:21:04;;;;;;;;;0.00;0.00;;;;;;;;4970145;28;28635;-95
2023/07/03 13:23:31;;;;;;;;;1.33;1.33;;;;;;;;4976369;28;28477;-95
2023/07/03 13:25:57;;;;;;;;;2.00;1.00;;;;;;;;4992383;28;28489;-95
2023/07/03 13:28:29;;;;;;;;;0.00;0.00;;;;;;;;4976998;28;28566;-95
2023/07/03 13:31:11;;;;;;;;;1.00;1.00;;;;;;;;4977401;28;28359;-95
2023/07/03 13:33:37;;;;;;;;;1.00;1.00;;;;;;;;4974265;28;28531;-94
2023/07/03 13:36:19;;;;;;;;;1.00;1.00;;;;;;;;4971078;28;28371;-94
2023/07/03 13:38:57;;;;;;;;;1.00;1.00;;;;;;;;4968672;28;28661;-94
2023/07/03 13:41:22;;;;;;;;;2.00;2.00;;;;;;;;4976754;28;28394;-94
2023/07/03 13:43:47;;;;;;;;;1.67;1.67;;;;;;;;4950859;28;28335;-94
2023/07/03 13:46:15;;;;;;;;;2.33;2.33;;;;;;;;4958722;28;28313;-92
2023/07/03 13:48:43;;;;;;;;;1.00;1.00;;;;;;;;4957816;28;28447;-91
2023/07/03 13:51:08;;;;;;;;;2.00;2.00;;;;;;;;4959941;28;30295;-92
2023/07/03 13:53:33;;;;;;;;;1.00;1.00;;;;;;;;4992407;28;28479;-92
2023/07/03 13:56:01;;;;;;;;;2.00;2.00;;;;;;;;4996414;28;28545;-92
2023/07/03 13:58:28;;;;;;;;;2.33;2.33;;;;;;;;4978467;28;28468;-92
2023/07/03 14:00:54;;;;;;;;;4.33;2.00;;;;;;;;4995337;28;29480;-92
2023/07/03 14:03:19;;;;;;;;;3.33;3.33;;;;;;;;4995354;28;28404;-92
2023/07/03 14:05:47;;;;;;;;;1.33;1.33;;;;;;;;4996611;28;28523;-92
2023/07/03 14:08:12;;;;;;;;;1.67;1.67;;;;;;;;4996430;28;28596;-91
2023/07/03 14:10:40;;;;;;;;;1.67;1.67;;;;;;;;4995754;28;28431;-91
2023/07/03 14:13:05;;;;;;;;;1.00;1.00;;;;;;;;4974963;28;28888;-92
2023/07/03 14:15:30;;;;;;;;;1.00;1.00;;;;;;;;4978103;28;28488;-91
2023/07/03 14:17:56;;;;;;;;;2.00;1.00;;;;;;;;4996897;28;28586;-92
2023/07/03 14:20:32;;;;;;;;;0.33;0.33;;;;;;;;4990478;28;29862;-92
2023/07/03 14:22:58;;;;;;;;;1.00;1.00;;;;;;;;4979111;28;28531;-92
2023/07/03 14:25:23;;;;;;;;;1.00;1.00;;;;;;;;4996812;28;28455;-92
2023/07/03 14:27:48;;;;;;;;;1.00;1.00;;;;;;;;4996246;28;28412;-92
2023/07/03 14:30:17;;;;;;;;;1.00;1.00;;;;;;;;4995042;28;29311;-91
2023/07/03 14:32:42;;;;;;;;;0.00;0.00;;;;;;;;4995474;28;28477;-92
2023/07/03 14:35:08;;;;;;;;;0.00;0.00;;;;;;;;4995793;28;28505;-92
2023/07/03 14:37:34;;;;;;;;;1.00;1.00;;;;;;;;4977567;28;28737;-91
2023/07/03 14:40:00;;;;;;;;;1.00;0.00;;;;;;;;4995692;28;29073;-91
2023/07/03 14:42:26;;;;;;;;;0.00;0.00;;;;;;;;4977743;28;30255;-91
2023/07/03 14:44:52;;;;;;;;;0.33;0.33;;;;;;;;4981088;28;28520;-91
2023/07/03 14:47:20;;;;;;;;;1.67;1.67;;;;;;;;4978021;28;28303;-92
2023/07/03 14:49:45;;;;;;;;;2.00;2.00;;;;;;;;4994965;28;29644;-92
2023/07/03 14:52:11;;;;;;;;;0.33;0.33;;;;;;;;4995433;28;28499;-91
2023/07/03 14:54:36;;;;;;;;;0.00;0.00;;;;;;;;4977611;28;28866;-92
2023/07/03 14:57:01;;;;;;;;;2.00;1.00;;;;;;;;4996419;28;28499;-91
2023/07/03 14:59:29;;;;;;;;;0.33;0.33;;;;;;;;5004805;28;28539;-92
2023/07/03 15:01:56;;;;;;;;;1.00;0.33;;;;;;;;4976697;28;28935;-92
2023/07/03 15:04:22;;;;;;;;;0.67;0.67;;;;;;;;4982199;28;28573;-92
2023/07/03 15:06:47;;;;;;;;;1.00;1.00;;;;;;;;4997463;28;28420;-91
2023/07/03 15:09:12;;;;;;;;;0.00;0.00;;;;;;;;4979424;28;29831;-92
2023/07/03 15:11:37;;;;;;;;;1.00;1.00;;;;;;;;4981482;28;29688;-92
2023/07/03 15:14:06;;;;;;;;;1.00;1.00;;;;;;;;4981190;28;28270;-92
2023/07/03 15:16:34;;;;;;;;;0.00;0.00;;;;;;;;4999976;28;28400;-92
2023/07/03 15:19:12;;;;;;;;;0.00;0.00;;;;;;;;4997844;28;28517;-92
2023/07/03 15:21:37;;;;;;;;;1.00;1.00;;;;;;;;4998773;28;28372;-91
2023/07/03 15:24:03;;;;;;;;;1.00;1.00;;;;;;;;4976795;28;28314;-92
2023/07/03 15:26:29;;;;;;;;;0.00;0.00;;;;;;;;4968955;28;28421;-91
2023/07/03 15:28:54;;;;;;;;;1.00;1.00;;;;;;;;4998119;28;28973;-91
2023/07/03 15:31:19;;;;;;;;;1.67;1.00;;;;;;;;4999156;28;28387;-92
2023/07/03 15:33:45;;;;;;;;;0.33;0.33;;;;;;;;4979810;28;28273;-92
2023/07/03 15:36:10;;;;;;;;;1.00;1.00;;;;;;;;4998902;28;28697;-91
2023/07/03 15:38:35;;;;;;;;;1.67;1.67;;;;;;;;4979407;28;29790;-91
2023/07/03 15:41:01;;;;;;;;;1.00;1.00;;;;;;;;4996377;28;28565;-91
2023/07/03 15:43:26;;;;;;;;;1.67;1.67;;;;;;;;4981175;28;28410;-91
2023/07/03 15:46:03;;;;;;;;;2.00;2.00;;;;;;;;4998606;28;28395;-91
2023/07/03 15:48:28;;;;;;;;;1.33;1.33;;;;;;;;4984943;28;28547;-91
2023/07/03 15:50:57;;;;;;;;;1.33;1.33;;;;;;;;4979572;28;28689;-91
2023/07/03 15:53:23;;;;;;;;;3.00;1.67;;;;;;;;4980694;28;28344;-91
2023/07/03 15:55:58;;;;;;;;;1.00;1.00;;;;;;;;4968223;28;28555;-91
2023/07/03 15:58:23;;;;;;;;;1.67;1.67;;;;;;;;4980636;28;30671;-91
2023/07/03 16:00:58;;;;;;;;;1.00;1.00;;;;;;;;4998136;28;28928;-91
2023/07/03 16:03:23;;;;;;;;;1.67;1.67;;;;;;;;4986777;28;28312;-91
2023/07/03 16:06:00;;;;;;;;;2.00;2.00;;;;;;;;4978611;28;28421;-91
2023/07/03 16:08:26;;;;;;;;;1.00;1.00;;;;;;;;4978730;28;28491;-91
2023/07/03 16:10:52;;;;;;;;;2.00;1.00;;;;;;;;4962993;28;28599;-91
2023/07/03 16:13:17;;;;;;;;;1.00;1.00;;;;;;;;4980278;28;28470;-91